Time;durP1;ratioP1;P1;durP2;ratioP2;P2;SDS_P1;SDS_P2;PMS_P1;PMS_P2;Temp;Humidity;BMP_temperature;BMP_pressure;BME280_temperature;BME280_humidity;BME280_pressure;Samples;Min_cycle;Max_cycle;Signal;HPM_P1;HPM_P2
2022/07/30 00:01:06;;;;;;;9.37;4.33;;;20.20;99.90;;;;;;5040441;28;20859;-76
2022/07/30 00:03:41;;;;;;;8.80;4.23;;;20.10;99.90;;;;;;5033835;28;20509;-75
2022/07/30 00:06:08;;;;;;;10.10;5.37;;;20.00;99.90;;;;;;5028733;28;20520;-77
2022/07/30 00:08:34;;;;;;;6.87;4.43;;;19.90;99.90;;;;;;5024616;28;20531;-77
2022/07/30 00:11:01;;;;;;;7.00;4.83;;;19.90;99.90;;;;;;5024717;28;20471;-75
2022/07/30 00:13:28;;;;;;;4.17;3.60;;;19.90;99.90;;;;;;5024886;28;20898;-77
2022/07/30 00:15:57;;;;;;;5.87;4.60;;;19.90;99.90;;;;;;5031254;28;20810;-76
2022/07/30 00:18:24;;;;;;;11.50;5.63;;;19.90;99.90;;;;;;5022947;28;20567;-75
2022/07/30 00:20:50;;;;;;;9.37;4.50;;;19.80;99.90;;;;;;5026755;28;20533;-76
2022/07/30 00:23:17;;;;;;;8.50;4.50;;;19.80;99.90;;;;;;5030852;28;20565;-76
2022/07/30 00:25:45;;;;;;;5.03;3.20;;;19.70;99.90;;;;;;5026607;28;20449;-77
2022/07/30 00:28:12;;;;;;;4.13;3.70;;;19.70;99.90;;;;;;5032180;28;20439;-76
2022/07/30 00:30:39;;;;;;;5.93;3.93;;;19.70;99.90;;;;;;5023855;28;20451;-77
2022/07/30 00:33:07;;;;;;;5.03;3.57;;;19.70;99.90;;;;;;5031477;28;20483;-75
2022/07/30 00:35:34;;;;;;;7.73;4.40;;;19.80;99.90;;;;;;5030283;28;20818;-76
2022/07/30 00:38:01;;;;;;;7.37;4.60;;;19.70;99.90;;;;;;5017388;28;20546;-76
2022/07/30 00:40:29;;;;;;;4.90;4.20;;;19.70;99.90;;;;;;5019307;28;20456;-75
2022/07/30 00:42:55;;;;;;;4.80;4.30;;;19.70;99.90;;;;;;5033685;28;20540;-76
2022/07/30 00:45:22;;;;;;;4.07;3.50;;;19.70;99.90;;;;;;5030549;28;20499;-76
2022/07/30 00:47:50;;;;;;;7.37;5.20;;;19.70;99.90;;;;;;5034142;28;20945;-77
2022/07/30 00:50:18;;;;;;;4.43;3.80;;;19.70;99.90;;;;;;5027372;28;20537;-76
2022/07/30 00:52:45;;;;;;;7.53;4.40;;;19.60;99.90;;;;;;5028703;28;21023;-76
2022/07/30 00:55:15;;;;;;;6.93;4.53;;;19.50;99.90;;;;;;5030315;28;20457;-77
2022/07/30 00:57:42;;;;;;;10.90;3.97;;;19.40;99.90;;;;;;5029389;28;20523;-76
2022/07/30 01:00:12;;;;;;;8.20;5.70;;;19.40;99.90;;;;;;5021571;28;21009;-77
2022/07/30 01:02:39;;;;;;;7.07;4.20;;;19.40;99.90;;;;;;5033235;28;20505;-76
2022/07/30 01:05:07;;;;;;;6.67;4.50;;;19.40;99.90;;;;;;5029350;28;20986;-76
2022/07/30 01:07:36;;;;;;;5.90;3.43;;;19.30;99.90;;;;;;5031146;28;20450;-75
2022/07/30 01:10:03;;;;;;;6.80;4.87;;;19.30;99.90;;;;;;5020744;28;20439;-74
2022/07/30 01:12:32;;;;;;;5.70;4.13;;;19.30;99.90;;;;;;5027781;28;20450;-76
2022/07/30 01:15:01;;;;;;;8.03;4.43;;;19.20;99.90;;;;;;5036730;28;20559;-76
2022/07/30 01:17:28;;;;;;;4.67;4.07;;;19.30;99.90;;;;;;5026234;28;20445;-75
2022/07/30 01:20:00;;;;;;;8.00;3.93;;;19.30;99.90;;;;;;5031207;28;20487;-75
2022/07/30 01:22:44;;;;;;;6.23;3.90;;;19.30;99.90;;;;;;5026497;28;20447;-76
2022/07/30 01:25:17;;;;;;;6.50;4.20;;;19.30;99.90;;;;;;5022291;28;20456;-76
2022/07/30 01:27:50;;;;;;;8.30;3.90;;;19.40;99.90;;;;;;5028533;28;20862;-76
2022/07/30 01:30:20;;;;;;;6.63;4.50;;;19.30;99.90;;;;;;5025216;28;20447;-76
2022/07/30 01:32:49;;;;;;;5.23;3.30;;;19.30;99.90;;;;;;5028343;28;21010;-76
2022/07/30 01:35:18;;;;;;;6.23;4.20;;;19.30;99.90;;;;;;5029034;28;20538;-76
2022/07/30 01:37:46;;;;;;;7.00;4.87;;;19.30;99.90;;;;;;5020570;28;20443;-76
2022/07/30 01:40:14;;;;;;;5.07;3.43;;;19.30;99.90;;;;;;5026935;28;20573;-76
2022/07/30 01:42:43;;;;;;;9.57;4.10;;;19.30;99.90;;;;;;5024437;28;20471;-76
2022/07/30 01:45:13;;;;;;;5.93;4.80;;;19.20;99.90;;;;;;5029830;28;20478;-76
2022/07/30 01:47:42;;;;;;;6.50;4.70;;;19.20;99.90;;;;;;5027799;28;20542;-76
2022/07/30 01:50:13;;;;;;;5.33;4.20;;;19.20;99.90;;;;;;5028340;28;20466;-75
2022/07/30 01:52:43;;;;;;;3.67;3.17;;;19.20;99.90;;;;;;5027821;28;20487;-76
2022/07/30 01:55:17;;;;;;;6.43;4.10;;;19.10;99.90;;;;;;5029032;28;21024;-75
2022/07/30 01:57:46;;;;;;;4.97;4.53;;;19.10;99.90;;;;;;5031673;28;20526;-74
2022/07/30 02:00:17;;;;;;;5.33;4.60;;;19.10;99.90;;;;;;5025525;28;20480;-76
2022/07/30 02:02:45;;;;;;;7.77;5.70;;;19.10;99.90;;;;;;5031179;28;20834;-76
2022/07/30 02:05:12;;;;;;;11.43;4.70;;;19.10;99.90;;;;;;5027309;28;20444;-77
2022/07/30 02:07:49;;;;;;;7.33;4.03;;;19.00;99.90;;;;;;5025490;28;20546;-76
2022/07/30 02:10:19;;;;;;;7.37;4.23;;;19.00;99.90;;;;;;5013069;28;20489;-76
2022/07/30 02:12:50;;;;;;;7.00;4.60;;;18.90;99.90;;;;;;5042634;28;20506;-75
2022/07/30 02:15:25;;;;;;;5.07;3.40;;;18.90;99.90;;;;;;5034849;28;20513;-77
2022/07/30 02:17:57;;;;;;;7.13;4.50;;;18.90;99.90;;;;;;5029815;28;20457;-76
2022/07/30 02:20:28;;;;;;;7.67;4.70;;;18.80;99.90;;;;;;5028943;28;20475;-76
2022/07/30 02:23:01;;;;;;;7.40;4.63;;;18.70;99.90;;;;;;5025903;28;20443;-78
2022/07/30 02:25:31;;;;;;;8.53;4.70;;;18.70;99.90;;;;;;5024051;28;20810;-76
2022/07/30 02:28:03;;;;;;;6.70;4.73;;;18.60;99.90;;;;;;5024814;28;20446;-77
2022/07/30 02:30:36;;;;;;;11.13;5.47;;;18.60;99.90;;;;;;5026823;28;21193;-77
2022/07/30 02:33:07;;;;;;;6.00;4.40;;;18.50;99.90;;;;;;5018650;28;20482;-77
2022/07/30 02:35:35;;;;;;;10.50;5.23;;;18.40;99.90;;;;;;5031046;28;20956;-75
2022/07/30 02:38:04;;;;;;;7.63;5.90;;;18.40;99.90;;;;;;5017023;28;20440;-75
2022/07/30 02:40:31;;;;;;;7.60;5.37;;;18.30;99.90;;;;;;5024361;28;20493;-77
2022/07/30 02:43:00;;;;;;;8.00;4.87;;;18.30;99.90;;;;;;5028023;28;20521;-76
2022/07/30 02:45:29;;;;;;;7.67;5.40;;;18.30;99.90;;;;;;5028238;28;20475;-77
2022/07/30 02:48:00;;;;;;;7.67;5.07;;;18.30;99.90;;;;;;5026521;28;20456;-76
2022/07/30 02:50:28;;;;;;;6.37;4.53;;;18.20;99.90;;;;;;5034408;28;20454;-78
2022/07/30 02:52:57;;;;;;;11.10;6.20;;;18.30;99.90;;;;;;5030032;28;20531;-76
2022/07/30 02:55:26;;;;;;;6.50;5.90;;;18.20;99.90;;;;;;5025338;28;21076;-75
2022/07/30 02:57:55;;;;;;;9.23;6.30;;;18.20;99.90;;;;;;5032715;28;20453;-76
2022/07/30 03:00:23;;;;;;;6.07;5.20;;;18.10;99.90;;;;;;5032313;28;20497;-76
2022/07/30 03:02:51;;;;;;;12.03;6.93;;;18.10;99.90;;;;;;5032019;28;20443;-77
2022/07/30 03:05:20;;;;;;;11.23;6.43;;;18.10;99.90;;;;;;5030625;28;21094;-76
2022/07/30 03:07:48;;;;;;;9.03;6.20;;;18.10;99.90;;;;;;5033324;28;20541;-76
2022/07/30 03:10:16;;;;;;;12.27;6.00;;;18.10;99.90;;;;;;5027038;28;20458;-75
2022/07/30 03:12:46;;;;;;;7.93;5.60;;;18.10;99.90;;;;;;5029243;28;20443;-75
2022/07/30 03:15:14;;;;;;;9.93;6.50;;;18.00;99.90;;;;;;5035470;28;20442;-75
2022/07/30 03:17:44;;;;;;;8.20;6.47;;;18.10;99.90;;;;;;5037479;28;20525;-76
2022/07/30 03:20:13;;;;;;;13.50;7.37;;;18.00;99.90;;;;;;5033036;28;20492;-76
2022/07/30 03:22:44;;;;;;;11.30;7.30;;;18.00;99.90;;;;;;5030134;28;20531;-75
2022/07/30 03:25:15;;;;;;;7.27;6.57;;;18.00;99.90;;;;;;5032669;28;20445;-77
2022/07/30 03:27:43;;;;;;;6.37;5.27;;;17.90;99.90;;;;;;5040225;28;20450;-74
2022/07/30 03:30:11;;;;;;;10.03;5.70;;;18.00;99.90;;;;;;5037831;28;20522;-75
2022/07/30 03:32:40;;;;;;;7.00;5.87;;;18.00;99.90;;;;;;5031547;28;20446;-75
2022/07/30 03:35:11;;;;;;;6.23;5.63;;;17.90;99.90;;;;;;5026588;28;20451;-76
2022/07/30 03:37:40;;;;;;;14.63;6.60;;;17.90;99.90;;;;;;5030193;28;20447;-76
2022/07/30 03:40:09;;;;;;;8.30;5.77;;;18.00;99.90;;;;;;5026673;28;20491;-75
2022/07/30 03:42:37;;;;;;;8.33;7.30;;;17.90;99.90;;;;;;5022614;28;20471;-76
2022/07/30 03:45:06;;;;;;;9.53;6.73;;;17.90;99.90;;;;;;5034945;28;20453;-76
2022/07/30 03:47:37;;;;;;;6.37;5.73;;;17.90;99.90;;;;;;5036812;28;20485;-76
2022/07/30 03:50:04;;;;;;;9.97;6.83;;;17.90;99.90;;;;;;5033974;28;20546;-76
2022/07/30 03:52:34;;;;;;;8.53;6.53;;;17.90;99.90;;;;;;5028520;28;20450;-76
2022/07/30 03:55:02;;;;;;;9.30;6.63;;;17.90;99.90;;;;;;5029078;28;20447;-76
2022/07/30 03:57:30;;;;;;;14.00;6.67;;;17.90;99.90;;;;;;5033569;28;20474;-75
2022/07/30 03:59:57;;;;;;;7.03;6.33;;;18.00;99.90;;;;;;5026723;28;20490;-75
2022/07/30 04:02:24;;;;;;;11.37;7.60;;;18.00;99.90;;;;;;5031839;28;20461;-76
2022/07/30 04:04:52;;;;;;;6.10;5.50;;;18.00;99.90;;;;;;5031812;28;20470;-77
2022/07/30 04:07:19;;;;;;;8.00;6.67;;;18.00;99.90;;;;;;5036900;28;20849;-75
2022/07/30 04:09:46;;;;;;;8.60;6.63;;;18.00;99.90;;;;;;5031296;28;20523;-75
2022/07/30 04:12:13;;;;;;;8.93;6.83;;;18.00;99.90;;;;;;5028903;28;20454;-75
2022/07/30 04:14:42;;;;;;;12.40;6.57;;;18.00;99.90;;;;;;5031552;28;20492;-76
2022/07/30 04:17:15;;;;;;;11.90;7.93;;;17.90;99.90;;;;;;5025270;28;20467;-75
2022/07/30 04:19:46;;;;;;;10.40;8.50;;;17.90;99.90;;;;;;5024031;28;20486;-74
2022/07/30 04:22:20;;;;;;;13.27;6.87;;;17.90;99.90;;;;;;5038466;28;20510;-77
2022/07/30 04:24:48;;;;;;;8.20;7.00;;;17.90;99.90;;;;;;5036021;28;20490;-75
2022/07/30 04:27:16;;;;;;;10.50;6.73;;;17.90;99.90;;;;;;5028445;28;20992;-75
2022/07/30 04:29:45;;;;;;;11.33;7.70;;;17.90;99.90;;;;;;5028948;28;20964;-75
2022/07/30 04:32:12;;;;;;;12.77;8.17;;;17.90;99.90;;;;;;5032326;28;20444;-75
2022/07/30 04:34:46;;;;;;;8.50;6.67;;;17.80;99.90;;;;;;5020794;28;20479;-75
2022/07/30 04:37:14;;;;;;;13.73;7.30;;;17.80;99.90;;;;;;5018261;28;20806;-76
2022/07/30 04:39:41;;;;;;;8.10;7.30;;;17.80;99.90;;;;;;5028617;28;20493;-77
2022/07/30 04:42:09;;;;;;;11.30;7.10;;;17.80;99.90;;;;;;5026953;28;20549;-76
2022/07/30 04:44:36;;;;;;;11.67;7.80;;;17.90;99.90;;;;;;5027556;28;20558;-75
2022/07/30 04:47:04;;;;;;;10.20;7.63;;;17.90;99.90;;;;;;5037821;28;20485;-75
2022/07/30 04:49:33;;;;;;;13.97;9.13;;;17.90;99.90;;;;;;5034073;28;20538;-75
2022/07/30 04:52:00;;;;;;;10.47;7.20;;;18.00;99.90;;;;;;5035523;28;20871;-77
2022/07/30 04:54:36;;;;;;;8.90;7.90;;;18.10;99.90;;;;;;5026388;28;20553;-76
2022/07/30 04:57:03;;;;;;;10.87;8.83;;;18.20;99.90;;;;;;5031334;28;20533;-76
2022/07/30 04:59:30;;;;;;;7.37;6.73;;;18.30;99.90;;;;;;5040357;28;20534;-76
2022/07/30 05:01:59;;;;;;;11.23;8.60;;;18.50;99.90;;;;;;5032937;28;20455;-76
2022/07/30 05:04:28;;;;;;;13.70;8.90;;;18.60;99.90;;;;;;5022940;28;20497;-76
2022/07/30 05:06:57;;;;;;;11.63;8.77;;;18.70;99.90;;;;;;5026777;28;20453;-77
2022/07/30 05:09:24;;;;;;;8.80;7.00;;;18.80;99.90;;;;;;5036826;28;20478;-76
2022/07/30 05:11:52;;;;;;;9.90;8.23;;;18.90;99.90;;;;;;5023848;28;20571;-76
2022/07/30 05:14:19;;;;;;;11.40;6.70;;;19.00;99.90;;;;;;5032640;28;20470;-74
2022/07/30 05:16:46;;;;;;;11.00;7.67;;;19.20;99.90;;;;;;5029443;28;20465;-76
2022/07/30 05:19:13;;;;;;;12.90;6.73;;;19.30;99.90;;;;;;5025044;28;20510;-76
2022/07/30 05:21:41;;;;;;;10.33;8.10;;;19.40;99.90;;;;;;5026867;28;21014;-76
2022/07/30 05:24:08;;;;;;;7.53;6.70;;;19.60;99.90;;;;;;5026901;28;20480;-76
2022/07/30 05:26:35;;;;;;;6.83;6.23;;;19.70;99.90;;;;;;5031920;28;20534;-75
2022/07/30 05:29:02;;;;;;;11.50;7.73;;;19.90;99.90;;;;;;5028974;28;20481;-77
2022/07/30 05:31:29;;;;;;;15.47;8.47;;;20.10;99.90;;;;;;5037226;28;20873;-76
2022/07/30 05:33:56;;;;;;;7.97;7.13;;;20.30;99.90;;;;;;5025072;28;20495;-75
2022/07/30 05:36:23;;;;;;;7.50;6.20;;;20.40;99.90;;;;;;5024427;28;20449;-76
2022/07/30 05:38:51;;;;;;;11.37;7.40;;;20.60;99.90;;;;;;5033346;28;20770;-74
2022/07/30 05:41:18;;;;;;;14.13;7.60;;;20.70;99.90;;;;;;5027992;28;20522;-75
2022/07/30 05:43:45;;;;;;;9.40;6.97;;;20.90;99.90;;;;;;5020533;28;20483;-77
2022/07/30 05:46:12;;;;;;;7.87;6.33;;;21.00;99.90;;;;;;5033188;28;20543;-76
2022/07/30 05:48:39;;;;;;;10.60;6.07;;;21.10;99.90;;;;;;5031911;28;20809;-74
2022/07/30 05:51:07;;;;;;;7.53;6.70;;;21.10;99.90;;;;;;5036430;28;20539;-75
2022/07/30 05:53:34;;;;;;;13.03;7.37;;;21.20;99.90;;;;;;5024986;28;20473;-76
2022/07/30 05:56:02;;;;;;;9.17;5.43;;;21.30;99.90;;;;;;5029827;28;20468;-76
2022/07/30 05:58:29;;;;;;;12.17;6.27;;;21.40;99.90;;;;;;5026773;28;20458;-77
2022/07/30 06:00:56;;;;;;;9.63;6.73;;;21.50;99.90;;;;;;5032029;28;20587;-76
2022/07/30 06:03:23;;;;;;;8.27;6.40;;;21.40;99.90;;;;;;5026885;28;20506;-76
2022/07/30 06:05:50;;;;;;;13.07;7.80;;;21.10;99.90;;;;;;5025847;28;20471;-76
2022/07/30 06:08:17;;;;;;;8.90;6.60;;;20.90;99.90;;;;;;5026719;28;20524;-77
2022/07/30 06:10:44;;;;;;;8.63;7.73;;;20.80;99.90;;;;;;5031934;28;20755;-76
2022/07/30 06:13:12;;;;;;;13.30;8.50;;;20.60;99.90;;;;;;5027472;28;20592;-77
2022/07/30 06:15:39;;;;;;;9.17;8.17;;;20.40;99.90;;;;;;5029558;28;20873;-76
2022/07/30 06:18:05;;;;;;;10.50;8.53;;;20.20;99.90;;;;;;5031097;28;20888;-76
2022/07/30 06:20:32;;;;;;;10.60;7.70;;;19.80;99.90;;;;;;5029656;28;20470;-76
2022/07/30 06:23:00;;;;;;;9.00;6.07;;;19.80;99.90;;;;;;5026838;28;20511;-76
2022/07/30 06:25:27;;;;;;;15.20;8.80;;;19.80;99.90;;;;;;5028098;28;20438;-76
2022/07/30 06:27:54;;;;;;;13.90;8.97;;;19.70;99.90;;;;;;5036684;28;20811;-76
2022/07/30 06:30:25;;;;;;;16.90;8.97;;;19.80;99.90;;;;;;5044756;28;20477;-75
2022/07/30 06:32:52;;;;;;;11.43;8.63;;;19.80;99.90;;;;;;5036984;28;20443;-76
2022/07/30 06:35:19;;;;;;;9.27;8.37;;;19.80;99.90;;;;;;5036543;28;20530;-76
2022/07/30 06:37:46;;;;;;;12.20;8.63;;;20.20;99.90;;;;;;5028362;28;20439;-75
2022/07/30 06:40:13;;;;;;;10.60;7.80;;;20.40;99.90;;;;;;5032495;28;20515;-77
2022/07/30 06:42:40;;;;;;;11.83;9.00;;;20.80;99.90;;;;;;5021543;28;20445;-74
2022/07/30 06:45:09;;;;;;;9.77;7.50;;;21.80;99.90;;;;;;5030193;28;20801;-75
2022/07/30 06:47:37;;;;;;;13.47;7.50;;;22.60;99.90;;;;;;5029123;28;20522;-75
2022/07/30 06:50:05;;;;;;;9.13;7.63;;;22.80;99.90;;;;;;5030702;28;20459;-76
2022/07/30 06:52:32;;;;;;;9.30;6.97;;;22.90;99.90;;;;;;5033208;28;20557;-76
2022/07/30 06:54:59;;;;;;;9.57;8.57;;;23.00;99.90;;;;;;5034356;28;20478;-78
2022/07/30 06:57:26;;;;;;;8.87;5.97;;;23.30;99.90;;;;;;5039608;28;20529;-75
2022/07/30 06:59:53;;;;;;;6.80;6.20;;;23.90;99.90;;;;;;5030287;28;20464;-75
2022/07/30 07:02:20;;;;;;;8.37;7.50;;;25.10;99.90;;;;;;5023974;28;20472;-74
2022/07/30 07:04:48;;;;;;;9.83;5.80;;;25.20;99.90;;;;;;5031214;28;20861;-75
2022/07/30 07:07:15;;;;;;;7.27;6.50;;;25.50;99.90;;;;;;5021151;28;20976;-77
2022/07/30 07:09:42;;;;;;;10.53;5.97;;;25.80;99.90;;;;;;5034883;28;20504;-75
2022/07/30 07:12:09;;;;;;;8.43;6.33;;;25.80;99.90;;;;;;5030900;28;20539;-76
2022/07/30 07:14:36;;;;;;;8.53;7.10;;;26.00;99.90;;;;;;5028844;28;20802;-74
2022/07/30 07:17:03;;;;;;;9.53;6.60;;;25.90;99.70;;;;;;5033282;28;20855;-76
2022/07/30 07:19:30;;;;;;;11.03;7.60;;;25.90;99.90;;;;;;5030089;28;20510;-76
2022/07/30 07:21:59;;;;;;;7.27;5.53;;;26.10;98.90;;;;;;5026605;28;20497;-76
2022/07/30 07:24:27;;;;;;;8.20;5.67;;;26.60;98.50;;;;;;5034720;28;20473;-76
2022/07/30 07:26:53;;;;;;;6.37;5.70;;;27.50;96.80;;;;;;5030075;28;20455;-75
2022/07/30 07:29:20;;;;;;;9.40;7.07;;;28.40;94.40;;;;;;5035713;28;20533;-75
2022/07/30 07:31:47;;;;;;;9.80;5.70;;;29.20;92.20;;;;;;5036186;28;20497;-76
2022/07/30 07:34:15;;;;;;;4.93;4.43;;;30.10;90.70;;;;;;5035829;28;20826;-75
2022/07/30 07:36:42;;;;;;;7.03;5.40;;;31.00;88.00;;;;;;5046208;28;20451;-75
2022/07/30 07:39:10;;;;;;;7.40;5.50;;;31.50;86.10;;;;;;5045664;28;20448;-76
2022/07/30 07:41:37;;;;;;;17.23;5.67;;;32.10;83.90;;;;;;5040109;28;20517;-75
2022/07/30 07:44:06;;;;;;;7.50;5.17;;;32.60;81.20;;;;;;5047229;28;20506;-77
2022/07/30 07:46:33;;;;;;;10.17;5.63;;;33.10;79.00;;;;;;5036926;28;21008;-75
2022/07/30 07:49:00;;;;;;;8.57;6.10;;;32.50;79.30;;;;;;5038128;28;20533;-76
2022/07/30 07:51:27;;;;;;;12.50;6.70;;;31.40;80.60;;;;;;5020330;28;20435;-76
2022/07/30 07:53:54;;;;;;;9.17;6.53;;;30.20;83.10;;;;;;5030082;28;20561;-74
2022/07/30 07:56:23;;;;;;;9.63;6.60;;;29.60;86.00;;;;;;5023978;28;20525;-73
2022/07/30 07:58:52;;;;;;;6.23;5.63;;;28.70;88.40;;;;;;5030152;28;20796;-74
2022/07/30 08:01:19;;;;;;;10.50;5.50;;;28.20;90.70;;;;;;5026906;28;20484;-74
2022/07/30 08:03:46;;;;;;;6.60;4.70;;;27.70;91.60;;;;;;5019025;28;20499;-75
2022/07/30 08:06:14;;;;;;;7.77;5.07;;;27.10;92.40;;;;;;5031466;28;20478;-76
2022/07/30 08:08:42;;;;;;;8.10;5.53;;;26.70;93.60;;;;;;5024783;28;20488;-75
2022/07/30 08:11:09;;;;;;;8.53;6.10;;;26.00;94.80;;;;;;5027836;28;20514;-74
2022/07/30 08:13:38;;;;;;;11.87;6.40;;;25.50;96.40;;;;;;5033463;28;20597;-75
2022/07/30 08:16:07;;;;;;;8.07;5.87;;;25.00;97.90;;;;;;5026624;28;20864;-74
2022/07/30 08:18:35;;;;;;;9.27;6.30;;;24.80;98.60;;;;;;5020289;28;20447;-75
2022/07/30 08:21:02;;;;;;;6.57;5.70;;;24.60;99.70;;;;;;5019665;28;21027;-74
2022/07/30 08:23:29;;;;;;;6.83;5.37;;;24.50;99.90;;;;;;5027982;28;20474;-75
2022/07/30 08:25:56;;;;;;;9.40;6.60;;;24.60;99.90;;;;;;5027276;28;20535;-75
2022/07/30 08:28:23;;;;;;;6.20;5.20;;;24.70;99.90;;;;;;5034187;28;20945;-75
2022/07/30 08:30:52;;;;;;;7.70;6.20;;;24.80;99.80;;;;;;5029043;28;20656;-75
2022/07/30 08:33:19;;;;;;;8.00;6.07;;;25.10;99.40;;;;;;5028592;28;20558;-76
2022/07/30 08:35:46;;;;;;;10.90;6.20;;;24.80;99.40;;;;;;5031108;28;20511;-75
2022/07/30 08:38:13;;;;;;;9.87;7.17;;;24.80;99.80;;;;;;5028253;28;20537;-76
2022/07/30 08:40:40;;;;;;;6.57;5.83;;;24.90;99.90;;;;;;5021920;28;20959;-75
2022/07/30 08:43:08;;;;;;;10.00;7.43;;;25.20;99.70;;;;;;5035585;28;20980;-75
2022/07/30 08:45:35;;;;;;;6.63;5.10;;;25.60;98.90;;;;;;5028624;28;20541;-75
2022/07/30 08:48:08;;;;;;;8.97;5.80;;;26.40;97.40;;;;;;5034804;28;20538;-75
2022/07/30 08:50:36;;;;;;;8.90;6.30;;;26.90;95.50;;;;;;5030262;28;20539;-77
2022/07/30 08:53:03;;;;;;;12.40;6.00;;;27.20;94.80;;;;;;5026542;28;20851;-75
2022/07/30 08:55:30;;;;;;;9.10;7.10;;;27.40;94.20;;;;;;5032688;28;20534;-75
2022/07/30 08:57:58;;;;;;;8.67;5.60;;;27.10;94.00;;;;;;5025344;28;20462;-75
2022/07/30 09:00:31;;;;;;;10.47;6.70;;;27.40;94.10;;;;;;5023254;28;20471;-75
2022/07/30 09:02:58;;;;;;;10.87;5.50;;;27.50;93.70;;;;;;5031558;28;20550;-75
2022/07/30 09:05:27;;;;;;;7.63;6.90;;;27.50;94.00;;;;;;5038247;28;20966;-75
2022/07/30 09:07:54;;;;;;;11.57;7.87;;;27.40;93.50;;;;;;5037277;28;20453;-75
2022/07/30 09:10:23;;;;;;;9.63;7.10;;;27.40;93.50;;;;;;5036270;28;20445;-76
2022/07/30 09:12:50;;;;;;;9.13;5.97;;;27.30;93.70;;;;;;5053791;28;20452;-74
2022/07/30 09:15:19;;;;;;;9.60;7.13;;;27.30;93.70;;;;;;5031178;28;20467;-74
2022/07/30 09:17:48;;;;;;;9.00;5.70;;;27.30;93.60;;;;;;5026632;28;20518;-75
2022/07/30 09:20:15;;;;;;;14.50;6.27;;;28.00;93.30;;;;;;5029420;28;20485;-76
2022/07/30 09:22:46;;;;;;;11.27;6.53;;;28.60;92.30;;;;;;5045018;28;20496;-74
2022/07/30 09:25:13;;;;;;;10.00;6.10;;;28.70;92.00;;;;;;5040415;28;20453;-75
2022/07/30 09:27:47;;;;;;;8.90;5.63;;;28.80;91.60;;;;;;5040167;28;20439;-74
2022/07/30 09:30:15;;;;;;;10.30;5.83;;;29.10;91.20;;;;;;5032443;28;20494;-75
2022/07/30 09:32:49;;;;;;;8.77;7.20;;;29.20;90.60;;;;;;5031948;28;20447;-74
2022/07/30 09:35:17;;;;;;;13.87;6.73;;;28.90;90.60;;;;;;5036286;28;20544;-74
2022/07/30 09:37:45;;;;;;;9.73;6.17;;;28.70;90.70;;;;;;5040313;28;20439;-75
2022/07/30 09:40:15;;;;;;;8.77;5.33;;;28.90;90.70;;;;;;5039623;28;20446;-75
2022/07/30 09:42:42;;;;;;;9.00;5.77;;;29.10;90.50;;;;;;5033722;28;20566;-75
2022/07/30 09:45:11;;;;;;;17.83;6.00;;;30.00;89.20;;;;;;5037912;28;20545;-74
2022/07/30 09:47:39;;;;;;;7.10;6.00;;;30.40;86.80;;;;;;5029066;28;20447;-76
2022/07/30 09:50:08;;;;;;;8.93;6.13;;;30.80;86.30;;;;;;5026119;28;20455;-77
2022/07/30 09:52:35;;;;;;;11.03;6.20;;;30.70;85.80;;;;;;5026336;28;20447;-75
2022/07/30 09:55:04;;;;;;;8.70;5.33;;;31.10;85.30;;;;;;5028423;28;20534;-74
2022/07/30 09:57:31;;;;;;;7.17;5.40;;;31.50;84.40;;;;;;5027884;28;20545;-75
2022/07/30 10:00:15;;;;;;;7.67;6.10;;;31.70;83.30;;;;;;5021992;28;20447;-75
2022/07/30 10:02:42;;;;;;;9.87;5.73;;;31.20;83.00;;;;;;5030969;28;20553;-74
2022/07/30 10:05:10;;;;;;;10.67;7.20;;;31.20;83.10;;;;;;5025635;28;20888;-75
2022/07/30 10:07:38;;;;;;;12.67;6.70;;;30.70;84.20;;;;;;5029703;28;20542;-75
2022/07/30 10:10:08;;;;;;;11.23;8.77;;;30.30;85.30;;;;;;5028042;28;20474;-76
2022/07/30 10:12:36;;;;;;;17.67;10.77;;;29.90;86.20;;;;;;5020908;28;20533;-75
2022/07/30 10:15:05;;;;;;;13.30;9.60;;;29.30;87.60;;;;;;5031701;28;20444;-76
2022/07/30 10:17:33;;;;;;;14.03;11.20;;;28.90;89.60;;;;;;5028840;28;20449;-75
2022/07/30 10:20:00;;;;;;;12.50;9.00;;;28.90;89.30;;;;;;5031278;28;20456;-74
2022/07/30 10:22:27;;;;;;;9.27;6.23;;;29.10;89.60;;;;;;5028865;28;20488;-75
2022/07/30 10:24:54;;;;;;;20.90;12.93;;;29.30;89.30;;;;;;5027243;28;21030;-75
2022/07/30 10:27:23;;;;;;;14.07;10.60;;;29.40;88.80;;;;;;5033112;28;20478;-75
2022/07/30 10:29:50;;;;;;;17.77;11.60;;;29.40;88.70;;;;;;5024040;28;20991;-75
2022/07/30 10:32:18;;;;;;;12.50;9.07;;;30.00;87.10;;;;;;5033070;28;20623;-74
2022/07/30 10:34:46;;;;;;;16.63;11.20;;;30.40;85.50;;;;;;5033529;28;20470;-75
2022/07/30 10:37:15;;;;;;;16.60;9.43;;;30.60;84.00;;;;;;5032267;28;20477;-76
2022/07/30 10:39:47;;;;;;;12.40;8.33;;;30.50;84.90;;;;;;5024581;28;20530;-74
2022/07/30 10:42:31;;;;;;;18.50;9.47;;;30.60;83.40;;;;;;5031673;28;20573;-74
2022/07/30 10:45:17;;;;;;;10.73;8.60;;;30.70;83.70;;;;;;5021862;28;20469;-75
2022/07/30 10:47:45;;;;;;;13.63;8.90;;;30.70;83.20;;;;;;5019843;28;20439;-75
2022/07/30 10:50:14;;;;;;;12.20;7.03;;;30.70;82.50;;;;;;5035856;28;20438;-75
2022/07/30 10:52:49;;;;;;;11.33;8.07;;;30.60;83.00;;;;;;5032977;28;20536;-73
2022/07/30 10:55:17;;;;;;;16.00;10.70;;;30.50;82.90;;;;;;5026417;28;20507;-75
2022/07/30 10:58:03;;;;;;;14.10;9.20;;;30.50;82.20;;;;;;5031300;28;20449;-75
2022/07/30 11:00:31;;;;;;;10.03;7.70;;;30.40;82.40;;;;;;5028584;28;20446;-73
2022/07/30 11:03:28;;;;;;;12.10;8.17;;;30.30;81.90;;;;;;5025863;28;21016;-74
2022/07/30 11:06:26;;;;;;;15.03;7.33;;;30.20;81.90;;;;;;5039494;28;20451;-75
2022/07/30 11:08:53;;;;;;;13.70;8.97;;;30.20;83.10;;;;;;5033029;28;20450;-75
2022/07/30 11:11:45;;;;;;;15.83;8.90;;;30.40;80.70;;;;;;5027791;28;20882;-75
2022/07/30 11:14:13;;;;;;;10.90;6.90;;;30.30;79.00;;;;;;5014761;28;20575;-75
2022/07/30 11:16:59;;;;;;;13.70;7.93;;;30.50;79.70;;;;;;5031243;28;20517;-75
2022/07/30 11:19:27;;;;;;;9.80;5.90;;;30.90;78.70;;;;;;5027476;28;20462;-73
2022/07/30 11:22:24;;;;;;;10.03;6.07;;;31.10;77.50;;;;;;5029642;28;20483;-76
2022/07/30 11:24:52;;;;;;;9.97;5.90;;;31.40;77.00;;;;;;5024472;28;20506;-75
2022/07/30 11:27:36;;;;;;;9.50;4.90;;;31.90;75.10;;;;;;5030318;28;20518;-76
2022/07/30 11:30:06;;;;;;;8.20;5.17;;;32.10;74.40;;;;;;5026110;28;20461;-76
2022/07/30 11:32:35;;;;;;;7.87;5.20;;;32.00;74.00;;;;;;5024729;28;20443;-77
2022/07/30 11:35:17;;;;;;;9.40;5.80;;;31.70;74.70;;;;;;5023129;28;20443;-76
2022/07/30 11:37:58;;;;;;;14.30;6.00;;;31.40;73.60;;;;;;5019144;28;20431;-77
2022/07/30 11:40:26;;;;;;;14.53;5.27;;;30.70;75.80;;;;;;5028151;28;20475;-75
2022/07/30 11:43:18;;;;;;;8.63;5.77;;;30.70;77.50;;;;;;5026732;28;20909;-74
2022/07/30 11:45:46;;;;;;;8.13;4.00;;;30.60;76.40;;;;;;5025530;28;20490;-73
2022/07/30 11:48:15;;;;;;;5.87;3.87;;;30.80;73.70;;;;;;5033865;28;20454;-73
2022/07/30 11:50:43;;;;;;;8.43;4.67;;;31.20;73.90;;;;;;5031411;28;20522;-73
2022/07/30 11:53:15;;;;;;;8.20;5.60;;;31.50;73.60;;;;;;5022821;28;21012;-74
2022/07/30 11:55:44;;;;;;;10.17;6.90;;;31.40;74.70;;;;;;5026310;28;20454;-74
2022/07/30 11:58:22;;;;;;;6.97;4.10;;;30.80;74.90;;;;;;5024974;28;20930;-74
2022/07/30 12:00:52;;;;;;;8.10;5.20;;;30.30;75.90;;;;;;5026744;28;20449;-73
2022/07/30 12:03:20;;;;;;;7.40;4.70;;;29.80;77.40;;;;;;5034494;28;20554;-74
2022/07/30 12:05:48;;;;;;;9.23;5.17;;;29.20;78.80;;;;;;5030286;28;20485;-76
2022/07/30 12:08:16;;;;;;;4.90;3.97;;;28.90;80.40;;;;;;5022323;28;20861;-74
2022/07/30 12:10:43;;;;;;;6.60;5.80;;;28.60;81.50;;;;;;5029228;28;20482;-76
2022/07/30 12:13:12;;;;;;;10.47;4.93;;;28.50;83.20;;;;;;5018414;28;20543;-76
2022/07/30 12:15:40;;;;;;;7.10;4.70;;;28.40;83.30;;;;;;5023267;28;20498;-76
2022/07/30 12:18:11;;;;;;;8.57;6.70;;;28.50;83.20;;;;;;5022167;28;20465;-76
2022/07/30 12:20:38;;;;;;;7.40;6.40;;;28.50;83.00;;;;;;5027466;28;20526;-74
2022/07/30 12:23:10;;;;;;;5.00;4.23;;;28.70;81.60;;;;;;5029922;28;20491;-74
2022/07/30 12:25:39;;;;;;;8.83;4.53;;;28.80;81.20;;;;;;5026821;28;20535;-74
2022/07/30 12:28:06;;;;;;;6.10;4.33;;;28.90;80.80;;;;;;5022518;28;20491;-76
2022/07/30 12:30:33;;;;;;;6.13;4.60;;;29.10;80.70;;;;;;5024779;28;20451;-74
2022/07/30 12:33:01;;;;;;;14.87;5.70;;;29.00;80.90;;;;;;5023393;28;20511;-76
2022/07/30 12:35:45;;;;;;;6.23;3.50;;;28.90;81.30;;;;;;5022157;28;20440;-74
2022/07/30 12:38:13;;;;;;;9.97;3.90;;;28.60;82.00;;;;;;5021693;28;21465;-74
2022/07/30 12:40:51;;;;;;;5.10;4.00;;;28.70;82.60;;;;;;5025734;28;20869;-74
2022/07/30 12:43:37;;;;;;;11.20;4.30;;;28.70;82.10;;;;;;5025009;28;20970;-74
2022/07/30 12:46:04;;;;;;;5.43;3.80;;;28.80;81.40;;;;;;5025348;28;20474;-76
2022/07/30 12:48:32;;;;;;;6.20;3.60;;;28.70;81.60;;;;;;5023830;28;20556;-74
2022/07/30 12:51:09;;;;;;;6.43;3.70;;;28.60;82.00;;;;;;5023063;28;20806;-75
2022/07/30 12:53:39;;;;;;;3.93;3.60;;;28.60;81.50;;;;;;5019949;28;20485;-76